sensor_id;sensor_type;location;lat;lon;timestamp;P1;durP1;ratioP1;P2;durP2;ratioP2
58760;SDS011;44529;47.464;19.014;2023-04-25T00:02:36;2.00;;;1.90;;
58760;SDS011;44529;47.464;19.014;2023-04-25T00:05:38;1.85;;;1.75;;
58760;SDS011;44529;47.464;19.014;2023-04-25T00:08:41;2.65;;;2.05;;
58760;SDS011;44529;47.464;19.014;2023-04-25T00:11:43;2.12;;;1.80;;
58760;SDS011;44529;47.464;19.014;2023-04-25T00:14:46;2.15;;;1.83;;
58760;SDS011;44529;47.464;19.014;2023-04-25T00:17:49;2.75;;;1.70;;
58760;SDS011;44529;47.464;19.014;2023-04-25T00:20:51;2.25;;;2.05;;
58760;SDS011;44529;47.464;19.014;2023-04-25T00:23:54;2.62;;;2.22;;
58760;SDS011;44529;47.464;19.014;2023-04-25T00:26:56;3.05;;;2.37;;
58760;SDS011;44529;47.464;19.014;2023-04-25T00:29:59;2.40;;;2.20;;
58760;SDS011;44529;47.464;19.014;2023-04-25T00:33:01;2.55;;;2.25;;
58760;SDS011;44529;47.464;19.014;2023-04-25T00:36:05;2.40;;;2.20;;
58760;SDS011;44529;47.464;19.014;2023-04-25T00:39:07;2.85;;;2.58;;
58760;SDS011;44529;47.464;19.014;2023-04-25T00:42:10;2.83;;;2.28;;
58760;SDS011;44529;47.464;19.014;2023-04-25T00:45:14;2.67;;;2.47;;
58760;SDS011;44529;47.464;19.014;2023-04-25T00:48:17;6.80;;;2.72;;
58760;SDS011;44529;47.464;19.014;2023-04-25T00:51:20;3.85;;;2.67;;
58760;SDS011;44529;47.464;19.014;2023-04-25T00:54:23;2.70;;;2.50;;
58760;SDS011;44529;47.464;19.014;2023-04-25T00:57:26;2.62;;;2.42;;
58760;SDS011;44529;47.464;19.014;2023-04-25T01:00:30;3.78;;;2.67;;
58760;SDS011;44529;47.464;19.014;2023-04-25T01:03:33;6.50;;;2.80;;
58760;SDS011;44529;47.464;19.014;2023-04-25T01:06:38;3.12;;;2.67;;
58760;SDS011;44529;47.464;19.014;2023-04-25T01:09:40;3.33;;;3.12;;
58760;SDS011;44529;47.464;19.014;2023-04-25T01:12:43;3.97;;;3.10;;
58760;SDS011;44529;47.464;19.014;2023-04-25T01:15:46;5.00;;;2.95;;
58760;SDS011;44529;47.464;19.014;2023-04-25T01:18:48;4.60;;;3.12;;
58760;SDS011;44529;47.464;19.014;2023-04-25T01:21:52;3.65;;;2.87;;
58760;SDS011;44529;47.464;19.014;2023-04-25T01:24:54;4.10;;;3.10;;
58760;SDS011;44529;47.464;19.014;2023-04-25T01:27:58;3.40;;;3.10;;
58760;SDS011;44529;47.464;19.014;2023-04-25T01:31:01;3.53;;;3.08;;
58760;SDS011;44529;47.464;19.014;2023-04-25T01:34:03;3.72;;;3.42;;
58760;SDS011;44529;47.464;19.014;2023-04-25T01:37:06;3.53;;;3.22;;
58760;SDS011;44529;47.464;19.014;2023-04-25T01:40:09;3.42;;;3.12;;
58760;SDS011;44529;47.464;19.014;2023-04-25T01:43:13;5.97;;;3.15;;
58760;SDS011;44529;47.464;19.014;2023-04-25T01:46:16;3.17;;;2.97;;
58760;SDS011;44529;47.464;19.014;2023-04-25T01:49:19;3.30;;;2.92;;
58760;SDS011;44529;47.464;19.014;2023-04-25T01:52:21;4.95;;;3.08;;
58760;SDS011;44529;47.464;19.014;2023-04-25T01:55:24;4.70;;;3.22;;
58760;SDS011;44529;47.464;19.014;2023-04-25T01:58:27;4.80;;;3.22;;
58760;SDS011;44529;47.464;19.014;2023-04-25T02:01:31;4.22;;;3.10;;
58760;SDS011;44529;47.464;19.014;2023-04-25T02:04:34;4.12;;;3.05;;
58760;SDS011;44529;47.464;19.014;2023-04-25T02:07:37;4.15;;;3.30;;
58760;SDS011;44529;47.464;19.014;2023-04-25T02:10:39;3.12;;;2.87;;
58760;SDS011;44529;47.464;19.014;2023-04-25T02:13:42;3.95;;;3.40;;
58760;SDS011;44529;47.464;19.014;2023-04-25T02:16:45;3.92;;;2.72;;
58760;SDS011;44529;47.464;19.014;2023-04-25T02:19:48;4.97;;;3.40;;
58760;SDS011;44529;47.464;19.014;2023-04-25T02:22:51;3.50;;;3.20;;
58760;SDS011;44529;47.464;19.014;2023-04-25T02:25:54;3.85;;;3.20;;
58760;SDS011;44529;47.464;19.014;2023-04-25T02:28:59;3.10;;;2.80;;
58760;SDS011;44529;47.464;19.014;2023-04-25T02:32:01;3.20;;;2.97;;
58760;SDS011;44529;47.464;19.014;2023-04-25T02:35:04;3.97;;;3.10;;
58760;SDS011;44529;47.464;19.014;2023-04-25T02:38:08;3.37;;;3.10;;
58760;SDS011;44529;47.464;19.014;2023-04-25T02:41:10;4.30;;;2.67;;
58760;SDS011;44529;47.464;19.014;2023-04-25T02:44:12;2.65;;;2.45;;
58760;SDS011;44529;47.464;19.014;2023-04-25T02:47:15;2.83;;;2.62;;
58760;SDS011;44529;47.464;19.014;2023-04-25T02:50:17;3.30;;;3.03;;
58760;SDS011;44529;47.464;19.014;2023-04-25T02:53:20;3.40;;;3.10;;
58760;SDS011;44529;47.464;19.014;2023-04-25T02:56:23;4.05;;;3.15;;
58760;SDS011;44529;47.464;19.014;2023-04-25T02:59:28;3.47;;;3.20;;
58760;SDS011;44529;47.464;19.014;2023-04-25T03:02:30;3.53;;;3.22;;
58760;SDS011;44529;47.464;19.014;2023-04-25T03:05:33;4.62;;;3.08;;
58760;SDS011;44529;47.464;19.014;2023-04-25T03:08:35;3.33;;;3.00;;
58760;SDS011;44529;47.464;19.014;2023-04-25T03:11:38;4.55;;;3.60;;
58760;SDS011;44529;47.464;19.014;2023-04-25T03:14:41;4.28;;;3.20;;
58760;SDS011;44529;47.464;19.014;2023-04-25T03:17:43;3.83;;;3.33;;
58760;SDS011;44529;47.464;19.014;2023-04-25T03:20:45;3.62;;;3.25;;
58760;SDS011;44529;47.464;19.014;2023-04-25T03:23:48;3.28;;;2.87;;
58760;SDS011;44529;47.464;19.014;2023-04-25T03:26:51;3.72;;;3.25;;
58760;SDS011;44529;47.464;19.014;2023-04-25T03:29:53;3.90;;;2.78;;
58760;SDS011;44529;47.464;19.014;2023-04-25T03:32:56;3.22;;;2.95;;
58760;SDS011;44529;47.464;19.014;2023-04-25T03:35:58;2.53;;;2.33;;
58760;SDS011;44529;47.464;19.014;2023-04-25T03:39:01;3.42;;;3.12;;
58760;SDS011;44529;47.464;19.014;2023-04-25T03:42:04;3.03;;;2.83;;
58760;SDS011;44529;47.464;19.014;2023-04-25T03:45:07;3.15;;;2.85;;
58760;SDS011;44529;47.464;19.014;2023-04-25T03:48:10;4.12;;;2.92;;
58760;SDS011;44529;47.464;19.014;2023-04-25T03:51:13;3.90;;;2.90;;
58760;SDS011;44529;47.464;19.014;2023-04-25T03:54:16;3.17;;;2.97;;
58760;SDS011;44529;47.464;19.014;2023-04-25T03:57:19;3.00;;;2.70;;
58760;SDS011;44529;47.464;19.014;2023-04-25T04:00:22;3.28;;;2.97;;
58760;SDS011;44529;47.464;19.014;2023-04-25T04:03:25;3.97;;;3.10;;
58760;SDS011;44529;47.464;19.014;2023-04-25T04:06:28;3.20;;;3.00;;
58760;SDS011;44529;47.464;19.014;2023-04-25T04:09:31;2.92;;;2.72;;
58760;SDS011;44529;47.464;19.014;2023-04-25T04:12:34;4.95;;;3.10;;
58760;SDS011;44529;47.464;19.014;2023-04-25T04:15:36;3.42;;;3.03;;
58760;SDS011;44529;47.464;19.014;2023-04-25T04:18:38;3.55;;;3.25;;
58760;SDS011;44529;47.464;19.014;2023-04-25T04:21:41;3.25;;;3.00;;
58760;SDS011;44529;47.464;19.014;2023-04-25T04:24:44;3.95;;;3.10;;
58760;SDS011;44529;47.464;19.014;2023-04-25T04:27:49;3.60;;;3.37;;
58760;SDS011;44529;47.464;19.014;2023-04-25T04:30:54;4.32;;;3.53;;
58760;SDS011;44529;47.464;19.014;2023-04-25T04:33:57;3.75;;;3.45;;
58760;SDS011;44529;47.464;19.014;2023-04-25T04:37:00;4.25;;;3.85;;
58760;SDS011;44529;47.464;19.014;2023-04-25T04:40:03;4.75;;;3.62;;
58760;SDS011;44529;47.464;19.014;2023-04-25T04:43:07;3.80;;;3.50;;
58760;SDS011;44529;47.464;19.014;2023-04-25T04:46:12;3.60;;;3.30;;
58760;SDS011;44529;47.464;19.014;2023-04-25T04:49:15;3.97;;;3.60;;
58760;SDS011;44529;47.464;19.014;2023-04-25T04:52:18;3.80;;;3.50;;
58760;SDS011;44529;47.464;19.014;2023-04-25T04:55:22;5.15;;;3.47;;
58760;SDS011;44529;47.464;19.014;2023-04-25T04:58:25;3.72;;;3.37;;
58760;SDS011;44529;47.464;19.014;2023-04-25T05:01:27;3.75;;;3.28;;
58760;SDS011;44529;47.464;19.014;2023-04-25T05:04:32;3.17;;;2.97;;
58760;SDS011;44529;47.464;19.014;2023-04-25T05:07:35;3.58;;;3.17;;
58760;SDS011;44529;47.464;19.014;2023-04-25T05:10:38;3.67;;;3.35;;
58760;SDS011;44529;47.464;19.014;2023-04-25T05:13:40;3.80;;;3.08;;
58760;SDS011;44529;47.464;19.014;2023-04-25T05:16:43;3.55;;;3.28;;
58760;SDS011;44529;47.464;19.014;2023-04-25T05:19:46;3.62;;;3.33;;
58760;SDS011;44529;47.464;19.014;2023-04-25T05:22:48;3.35;;;3.05;;
58760;SDS011;44529;47.464;19.014;2023-04-25T05:25:51;3.90;;;3.40;;
58760;SDS011;44529;47.464;19.014;2023-04-25T05:28:54;3.40;;;3.05;;
58760;SDS011;44529;47.464;19.014;2023-04-25T05:31:57;4.40;;;3.03;;
58760;SDS011;44529;47.464;19.014;2023-04-25T05:35:00;3.47;;;2.90;;
58760;SDS011;44529;47.464;19.014;2023-04-25T05:38:03;4.65;;;3.37;;
58760;SDS011;44529;47.464;19.014;2023-04-25T05:41:06;4.68;;;3.33;;
58760;SDS011;44529;47.464;19.014;2023-04-25T05:44:11;3.50;;;2.92;;
58760;SDS011;44529;47.464;19.014;2023-04-25T05:47:14;5.35;;;2.78;;
58760;SDS011;44529;47.464;19.014;2023-04-25T05:50:16;4.12;;;3.00;;
58760;SDS011;44529;47.464;19.014;2023-04-25T05:53:19;4.03;;;3.25;;
58760;SDS011;44529;47.464;19.014;2023-04-25T05:56:24;3.87;;;3.55;;
58760;SDS011;44529;47.464;19.014;2023-04-25T05:59:27;3.75;;;3.45;;
58760;SDS011;44529;47.464;19.014;2023-04-25T06:02:29;4.00;;;3.70;;
58760;SDS011;44529;47.464;19.014;2023-04-25T06:05:32;4.18;;;3.78;;
58760;SDS011;44529;47.464;19.014;2023-04-25T06:08:35;6.25;;;4.10;;
58760;SDS011;44529;47.464;19.014;2023-04-25T06:11:37;4.15;;;3.65;;
58760;SDS011;44529;47.464;19.014;2023-04-25T06:14:40;4.40;;;3.42;;
58760;SDS011;44529;47.464;19.014;2023-04-25T06:17:43;4.20;;;3.80;;
58760;SDS011;44529;47.464;19.014;2023-04-25T06:20:47;4.95;;;4.50;;
58760;SDS011;44529;47.464;19.014;2023-04-25T06:23:50;4.30;;;3.90;;
58760;SDS011;44529;47.464;19.014;2023-04-25T06:26:54;4.45;;;4.00;;
58760;SDS011;44529;47.464;19.014;2023-04-25T06:29:56;4.68;;;4.28;;
58760;SDS011;44529;47.464;19.014;2023-04-25T06:32:59;4.85;;;4.35;;
58760;SDS011;44529;47.464;19.014;2023-04-25T06:36:03;7.78;;;4.75;;
58760;SDS011;44529;47.464;19.014;2023-04-25T06:39:06;5.43;;;5.03;;
58760;SDS011;44529;47.464;19.014;2023-04-25T06:42:09;5.03;;;4.62;;
58760;SDS011;44529;47.464;19.014;2023-04-25T06:45:12;4.80;;;4.50;;
58760;SDS011;44529;47.464;19.014;2023-04-25T06:48:15;5.18;;;4.78;;
58760;SDS011;44529;47.464;19.014;2023-04-25T06:51:17;5.37;;;4.87;;
58760;SDS011;44529;47.464;19.014;2023-04-25T06:54:20;5.32;;;4.82;;
58760;SDS011;44529;47.464;19.014;2023-04-25T06:57:23;5.03;;;4.55;;
58760;SDS011;44529;47.464;19.014;2023-04-25T07:00:26;5.22;;;4.80;;
58760;SDS011;44529;47.464;19.014;2023-04-25T07:03:30;5.78;;;5.25;;
58760;SDS011;44529;47.464;19.014;2023-04-25T07:06:34;6.00;;;5.50;;
58760;SDS011;44529;47.464;19.014;2023-04-25T07:09:45;5.47;;;4.95;;
58760;SDS011;44529;47.464;19.014;2023-04-25T07:12:48;5.22;;;4.75;;
58760;SDS011;44529;47.464;19.014;2023-04-25T07:15:51;6.03;;;5.37;;
58760;SDS011;44529;47.464;19.014;2023-04-25T07:18:56;5.50;;;5.00;;
58760;SDS011;44529;47.464;19.014;2023-04-25T07:21:58;5.10;;;4.70;;
58760;SDS011;44529;47.464;19.014;2023-04-25T07:25:01;4.87;;;4.47;;
58760;SDS011;44529;47.464;19.014;2023-04-25T07:28:04;4.93;;;4.53;;
58760;SDS011;44529;47.464;19.014;2023-04-25T07:31:06;5.10;;;4.45;;
58760;SDS011;44529;47.464;19.014;2023-04-25T07:34:09;5.00;;;4.50;;
58760;SDS011;44529;47.464;19.014;2023-04-25T07:37:12;6.05;;;4.60;;
58760;SDS011;44529;47.464;19.014;2023-04-25T07:40:17;4.78;;;4.30;;
58760;SDS011;44529;47.464;19.014;2023-04-25T07:43:20;4.57;;;4.18;;
58760;SDS011;44529;47.464;19.014;2023-04-25T07:46:23;4.43;;;4.03;;
58760;SDS011;44529;47.464;19.014;2023-04-25T07:49:27;4.32;;;4.03;;
58760;SDS011;44529;47.464;19.014;2023-04-25T07:52:29;6.05;;;4.47;;
58760;SDS011;44529;47.464;19.014;2023-04-25T07:55:33;4.35;;;3.95;;
58760;SDS011;44529;47.464;19.014;2023-04-25T07:58:36;6.32;;;4.22;;
58760;SDS011;44529;47.464;19.014;2023-04-25T08:01:39;5.22;;;4.10;;
58760;SDS011;44529;47.464;19.014;2023-04-25T08:04:42;4.50;;;4.10;;
58760;SDS011;44529;47.464;19.014;2023-04-25T08:07:44;3.87;;;3.58;;
58760;SDS011;44529;47.464;19.014;2023-04-25T08:10:47;5.62;;;3.65;;
58760;SDS011;44529;47.464;19.014;2023-04-25T08:13:50;3.62;;;3.30;;
58760;SDS011;44529;47.464;19.014;2023-04-25T08:16:53;3.70;;;3.40;;
58760;SDS011;44529;47.464;19.014;2023-04-25T08:19:55;3.50;;;3.20;;
58760;SDS011;44529;47.464;19.014;2023-04-25T08:23:00;4.03;;;3.50;;
58760;SDS011;44529;47.464;19.014;2023-04-25T08:26:03;4.45;;;3.53;;
58760;SDS011;44529;47.464;19.014;2023-04-25T08:29:08;4.28;;;3.87;;
58760;SDS011;44529;47.464;19.014;2023-04-25T08:32:11;3.50;;;3.30;;
58760;SDS011;44529;47.464;19.014;2023-04-25T08:35:15;3.65;;;3.35;;
58760;SDS011;44529;47.464;19.014;2023-04-25T08:38:19;3.50;;;3.20;;
58760;SDS011;44529;47.464;19.014;2023-04-25T08:41:22;3.67;;;3.20;;
58760;SDS011;44529;47.464;19.014;2023-04-25T08:44:25;5.18;;;3.28;;
58760;SDS011;44529;47.464;19.014;2023-04-25T08:47:28;3.95;;;3.60;;
58760;SDS011;44529;47.464;19.014;2023-04-25T08:50:34;5.60;;;3.72;;
58760;SDS011;44529;47.464;19.014;2023-04-25T08:53:37;4.07;;;3.60;;
58760;SDS011;44529;47.464;19.014;2023-04-25T08:56:45;4.75;;;3.50;;
58760;SDS011;44529;47.464;19.014;2023-04-25T08:59:49;3.97;;;3.40;;
58760;SDS011;44529;47.464;19.014;2023-04-25T09:02:52;3.58;;;3.28;;
58760;SDS011;44529;47.464;19.014;2023-04-25T09:05:55;3.95;;;3.65;;
58760;SDS011;44529;47.464;19.014;2023-04-25T09:09:04;4.85;;;3.58;;
58760;SDS011;44529;47.464;19.014;2023-04-25T09:12:08;3.80;;;3.50;;
58760;SDS011;44529;47.464;19.014;2023-04-25T09:15:12;3.40;;;3.10;;
58760;SDS011;44529;47.464;19.014;2023-04-25T09:18:26;3.40;;;3.20;;
58760;SDS011;44529;47.464;19.014;2023-04-25T09:21:33;4.57;;;3.33;;
58760;SDS011;44529;47.464;19.014;2023-04-25T09:24:40;3.65;;;3.35;;
58760;SDS011;44529;47.464;19.014;2023-04-25T09:27:49;3.55;;;3.25;;
58760;SDS011;44529;47.464;19.014;2023-04-25T09:30:56;3.40;;;3.20;;
58760;SDS011;44529;47.464;19.014;2023-04-25T09:34:00;3.42;;;3.10;;
58760;SDS011;44529;47.464;19.014;2023-04-25T09:37:03;5.15;;;3.10;;
58760;SDS011;44529;47.464;19.014;2023-04-25T09:40:08;6.00;;;2.80;;
58760;SDS011;44529;47.464;19.014;2023-04-25T09:43:20;3.47;;;2.92;;
58760;SDS011;44529;47.464;19.014;2023-04-25T09:46:24;5.10;;;3.20;;
58760;SDS011;44529;47.464;19.014;2023-04-25T09:49:30;2.80;;;2.60;;
58760;SDS011;44529;47.464;19.014;2023-04-25T09:52:33;2.45;;;2.28;;
58760;SDS011;44529;47.464;19.014;2023-04-25T09:55:36;2.72;;;2.53;;
58760;SDS011;44529;47.464;19.014;2023-04-25T09:58:40;2.60;;;2.40;;
58760;SDS011;44529;47.464;19.014;2023-04-25T10:01:43;3.60;;;2.47;;
58760;SDS011;44529;47.464;19.014;2023-04-25T10:04:50;2.30;;;2.10;;
58760;SDS011;44529;47.464;19.014;2023-04-25T10:07:56;2.30;;;2.10;;
58760;SDS011;44529;47.464;19.014;2023-04-25T10:11:01;2.33;;;2.22;;
58760;SDS011;44529;47.464;19.014;2023-04-25T10:14:05;2.30;;;2.10;;
58760;SDS011;44529;47.464;19.014;2023-04-25T10:17:09;3.03;;;2.35;;
58760;SDS011;44529;47.464;19.014;2023-04-25T10:20:12;3.20;;;2.45;;
58760;SDS011;44529;47.464;19.014;2023-04-25T10:23:15;1.90;;;1.80;;
58760;SDS011;44529;47.464;19.014;2023-04-25T10:26:23;2.72;;;1.85;;
58760;SDS011;44529;47.464;19.014;2023-04-25T10:29:31;2.17;;;1.98;;
58760;SDS011;44529;47.464;19.014;2023-04-25T10:32:34;2.17;;;1.98;;
58760;SDS011;44529;47.464;19.014;2023-04-25T10:35:37;1.75;;;1.65;;
58760;SDS011;44529;47.464;19.014;2023-04-25T10:38:42;2.28;;;1.62;;
58760;SDS011;44529;47.464;19.014;2023-04-25T10:41:46;1.35;;;1.25;;
58760;SDS011;44529;47.464;19.014;2023-04-25T10:45:01;1.80;;;1.00;;
58760;SDS011;44529;47.464;19.014;2023-04-25T10:48:24;1.48;;;1.10;;
58760;SDS011;44529;47.464;19.014;2023-04-25T10:51:28;1.80;;;1.25;;
58760;SDS011;44529;47.464;19.014;2023-04-25T10:54:54;1.30;;;0.90;;
58760;SDS011;44529;47.464;19.014;2023-04-25T10:57:57;0.82;;;0.82;;
58760;SDS011;44529;47.464;19.014;2023-04-25T11:01:01;2.50;;;0.90;;
58760;SDS011;44529;47.464;19.014;2023-04-25T11:04:03;0.80;;;0.80;;
58760;SDS011;44529;47.464;19.014;2023-04-25T11:10:27;0.62;;;0.62;;
58760;SDS011;44529;47.464;19.014;2023-04-25T11:13:31;0.60;;;0.60;;
58760;SDS011;44529;47.464;19.014;2023-04-25T11:16:33;0.77;;;0.70;;
58760;SDS011;44529;47.464;19.014;2023-04-25T11:19:36;2.10;;;0.65;;
58760;SDS011;44529;47.464;19.014;2023-04-25T11:22:38;1.27;;;0.80;;
58760;SDS011;44529;47.464;19.014;2023-04-25T11:25:44;1.45;;;0.65;;
58760;SDS011;44529;47.464;19.014;2023-04-25T11:28:46;0.77;;;0.77;;
58760;SDS011;44529;47.464;19.014;2023-04-25T11:31:52;2.55;;;1.00;;
58760;SDS011;44529;47.464;19.014;2023-04-25T11:34:55;1.48;;;0.50;;
58760;SDS011;44529;47.464;19.014;2023-04-25T11:37:57;0.55;;;0.55;;
58760;SDS011;44529;47.464;19.014;2023-04-25T11:41:00;0.55;;;0.40;;
58760;SDS011;44529;47.464;19.014;2023-04-25T11:44:05;0.70;;;0.70;;
58760;SDS011;44529;47.464;19.014;2023-04-25T11:47:08;1.65;;;0.70;;
58760;SDS011;44529;47.464;19.014;2023-04-25T11:50:11;1.23;;;0.82;;
58760;SDS011;44529;47.464;19.014;2023-04-25T11:53:13;0.60;;;0.60;;
58760;SDS011;44529;47.464;19.014;2023-04-25T11:56:16;2.40;;;0.70;;
58760;SDS011;44529;47.464;19.014;2023-04-25T11:59:18;2.92;;;0.80;;
58760;SDS011;44529;47.464;19.014;2023-04-25T12:02:31;1.67;;;0.70;;
58760;SDS011;44529;47.464;19.014;2023-04-25T12:05:34;1.90;;;0.70;;
58760;SDS011;44529;47.464;19.014;2023-04-25T12:08:38;0.60;;;0.60;;
58760;SDS011;44529;47.464;19.014;2023-04-25T12:11:43;0.62;;;0.60;;
58760;SDS011;44529;47.464;19.014;2023-04-25T12:14:49;1.02;;;0.70;;
58760;SDS011;44529;47.464;19.014;2023-04-25T12:17:52;1.48;;;0.95;;
58760;SDS011;44529;47.464;19.014;2023-04-25T12:20:57;0.98;;;0.98;;
58760;SDS011;44529;47.464;19.014;2023-04-25T12:24:09;0.85;;;0.85;;
58760;SDS011;44529;47.464;19.014;2023-04-25T12:27:16;1.83;;;0.80;;
58760;SDS011;44529;47.464;19.014;2023-04-25T12:30:20;1.42;;;1.10;;
58760;SDS011;44529;47.464;19.014;2023-04-25T12:33:23;2.03;;;1.00;;
58760;SDS011;44529;47.464;19.014;2023-04-25T12:36:26;1.05;;;0.80;;
58760;SDS011;44529;47.464;19.014;2023-04-25T12:39:28;1.30;;;1.20;;
58760;SDS011;44529;47.464;19.014;2023-04-25T12:42:31;0.95;;;0.85;;
58760;SDS011;44529;47.464;19.014;2023-04-25T12:45:33;1.60;;;1.23;;
58760;SDS011;44529;47.464;19.014;2023-04-25T12:48:36;1.98;;;1.12;;
58760;SDS011;44529;47.464;19.014;2023-04-25T12:51:40;1.30;;;1.10;;
58760;SDS011;44529;47.464;19.014;2023-04-25T12:54:43;1.23;;;1.02;;
58760;SDS011;44529;47.464;19.014;2023-04-25T12:57:45;1.05;;;1.00;;
58760;SDS011;44529;47.464;19.014;2023-04-25T13:00:48;1.85;;;1.27;;
58760;SDS011;44529;47.464;19.014;2023-04-25T13:03:50;1.52;;;1.30;;
58760;SDS011;44529;47.464;19.014;2023-04-25T13:06:53;1.67;;;1.30;;
58760;SDS011;44529;47.464;19.014;2023-04-25T13:09:56;2.03;;;1.25;;
58760;SDS011;44529;47.464;19.014;2023-04-25T13:12:59;2.78;;;1.65;;
58760;SDS011;44529;47.464;19.014;2023-04-25T13:16:01;2.05;;;1.30;;
58760;SDS011;44529;47.464;19.014;2023-04-25T13:19:04;1.40;;;1.30;;
58760;SDS011;44529;47.464;19.014;2023-04-25T13:22:07;1.40;;;1.20;;
58760;SDS011;44529;47.464;19.014;2023-04-25T13:25:09;3.45;;;1.20;;
58760;SDS011;44529;47.464;19.014;2023-04-25T13:28:12;1.62;;;1.20;;
58760;SDS011;44529;47.464;19.014;2023-04-25T13:31:15;2.25;;;1.30;;
58760;SDS011;44529;47.464;19.014;2023-04-25T13:34:17;1.52;;;1.37;;
58760;SDS011;44529;47.464;19.014;2023-04-25T13:37:19;2.47;;;1.40;;
58760;SDS011;44529;47.464;19.014;2023-04-25T13:40:22;3.42;;;1.25;;
58760;SDS011;44529;47.464;19.014;2023-04-25T13:43:26;1.85;;;1.50;;
58760;SDS011;44529;47.464;19.014;2023-04-25T13:46:28;4.00;;;1.65;;
58760;SDS011;44529;47.464;19.014;2023-04-25T13:49:48;2.12;;;1.70;;
58760;SDS011;44529;47.464;19.014;2023-04-25T13:52:51;3.53;;;1.52;;
58760;SDS011;44529;47.464;19.014;2023-04-25T13:55:54;1.80;;;1.65;;
58760;SDS011;44529;47.464;19.014;2023-04-25T13:58:56;1.58;;;1.42;;
58760;SDS011;44529;47.464;19.014;2023-04-25T14:01:59;1.58;;;1.48;;
58760;SDS011;44529;47.464;19.014;2023-04-25T14:05:02;2.80;;;1.70;;
58760;SDS011;44529;47.464;19.014;2023-04-25T14:08:06;4.55;;;1.75;;
58760;SDS011;44529;47.464;19.014;2023-04-25T14:11:10;2.10;;;1.20;;
58760;SDS011;44529;47.464;19.014;2023-04-25T14:14:12;1.73;;;1.62;;
58760;SDS011;44529;47.464;19.014;2023-04-25T14:17:18;1.42;;;1.02;;
58760;SDS011;44529;47.464;19.014;2023-04-25T14:20:20;2.42;;;1.37;;
58760;SDS011;44529;47.464;19.014;2023-04-25T14:23:25;1.65;;;1.20;;
58760;SDS011;44529;47.464;19.014;2023-04-25T14:26:28;1.85;;;1.40;;
58760;SDS011;44529;47.464;19.014;2023-04-25T14:29:30;1.70;;;1.48;;
58760;SDS011;44529;47.464;19.014;2023-04-25T14:32:33;1.77;;;1.25;;
58760;SDS011;44529;47.464;19.014;2023-04-25T14:35:35;1.45;;;1.35;;
58760;SDS011;44529;47.464;19.014;2023-04-25T14:38:37;1.90;;;1.45;;
58760;SDS011;44529;47.464;19.014;2023-04-25T14:41:40;2.55;;;1.37;;
58760;SDS011;44529;47.464;19.014;2023-04-25T14:44:42;1.20;;;1.17;;
58760;SDS011;44529;47.464;19.014;2023-04-25T14:47:45;4.32;;;1.70;;
58760;SDS011;44529;47.464;19.014;2023-04-25T14:50:47;2.37;;;1.33;;
58760;SDS011;44529;47.464;19.014;2023-04-25T14:53:50;1.30;;;1.20;;
58760;SDS011;44529;47.464;19.014;2023-04-25T14:56:53;2.67;;;1.45;;
58760;SDS011;44529;47.464;19.014;2023-04-25T14:59:55;2.40;;;1.55;;
58760;SDS011;44529;47.464;19.014;2023-04-25T15:02:58;5.30;;;1.50;;
58760;SDS011;44529;47.464;19.014;2023-04-25T15:06:01;1.70;;;1.60;;
58760;SDS011;44529;47.464;19.014;2023-04-25T15:09:03;1.70;;;1.40;;
58760;SDS011;44529;47.464;19.014;2023-04-25T15:12:06;4.80;;;1.33;;
58760;SDS011;44529;47.464;19.014;2023-04-25T15:15:09;3.03;;;1.50;;
58760;SDS011;44529;47.464;19.014;2023-04-25T15:18:26;1.65;;;1.15;;
58760;SDS011;44529;47.464;19.014;2023-04-25T15:21:29;1.90;;;1.65;;
58760;SDS011;44529;47.464;19.014;2023-04-25T15:24:32;1.40;;;1.30;;
58760;SDS011;44529;47.464;19.014;2023-04-25T15:27:35;1.55;;;1.30;;
58760;SDS011;44529;47.464;19.014;2023-04-25T15:33:47;2.53;;;1.95;;
58760;SDS011;44529;47.464;19.014;2023-04-25T15:36:50;3.28;;;1.50;;
58760;SDS011;44529;47.464;19.014;2023-04-25T15:40:00;2.65;;;1.98;;
58760;SDS011;44529;47.464;19.014;2023-04-25T15:43:08;2.60;;;1.50;;
58760;SDS011;44529;47.464;19.014;2023-04-25T15:46:16;3.42;;;2.00;;
58760;SDS011;44529;47.464;19.014;2023-04-25T15:49:19;1.65;;;1.52;;
58760;SDS011;44529;47.464;19.014;2023-04-25T15:52:22;2.97;;;2.75;;
58760;SDS011;44529;47.464;19.014;2023-04-25T15:55:25;3.53;;;3.22;;
58760;SDS011;44529;47.464;19.014;2023-04-25T15:58:27;2.97;;;2.78;;
58760;SDS011;44529;47.464;19.014;2023-04-25T16:01:30;5.35;;;2.85;;
58760;SDS011;44529;47.464;19.014;2023-04-25T16:04:33;3.87;;;3.05;;
58760;SDS011;44529;47.464;19.014;2023-04-25T16:07:36;3.62;;;2.85;;
58760;SDS011;44529;47.464;19.014;2023-04-25T16:10:40;3.08;;;2.87;;
58760;SDS011;44529;47.464;19.014;2023-04-25T16:13:42;4.82;;;3.10;;
58760;SDS011;44529;47.464;19.014;2023-04-25T16:16:45;3.50;;;3.20;;
58760;SDS011;44529;47.464;19.014;2023-04-25T16:19:48;2.85;;;2.65;;
58760;SDS011;44529;47.464;19.014;2023-04-25T16:22:51;3.20;;;2.87;;
58760;SDS011;44529;47.464;19.014;2023-04-25T16:25:53;3.00;;;2.70;;
58760;SDS011;44529;47.464;19.014;2023-04-25T16:28:56;2.87;;;2.60;;
58760;SDS011;44529;47.464;19.014;2023-04-25T16:31:58;2.95;;;2.25;;
58760;SDS011;44529;47.464;19.014;2023-04-25T16:35:01;2.65;;;2.45;;
58760;SDS011;44529;47.464;19.014;2023-04-25T16:38:03;3.53;;;2.50;;
58760;SDS011;44529;47.464;19.014;2023-04-25T16:41:06;2.70;;;2.50;;
58760;SDS011;44529;47.464;19.014;2023-04-25T16:44:08;2.70;;;2.50;;
58760;SDS011;44529;47.464;19.014;2023-04-25T16:47:11;2.35;;;2.15;;
58760;SDS011;44529;47.464;19.014;2023-04-25T16:50:18;3.47;;;2.50;;
58760;SDS011;44529;47.464;19.014;2023-04-25T16:53:21;4.87;;;2.42;;
58760;SDS011;44529;47.464;19.014;2023-04-25T16:56:24;5.10;;;2.75;;
58760;SDS011;44529;47.464;19.014;2023-04-25T16:59:27;2.78;;;2.58;;
58760;SDS011;44529;47.464;19.014;2023-04-25T17:02:29;3.08;;;2.70;;
58760;SDS011;44529;47.464;19.014;2023-04-25T17:05:32;4.53;;;2.67;;
58760;SDS011;44529;47.464;19.014;2023-04-25T17:08:35;2.70;;;2.50;;
58760;SDS011;44529;47.464;19.014;2023-04-25T17:11:37;3.22;;;2.60;;
58760;SDS011;44529;47.464;19.014;2023-04-25T17:14:39;5.43;;;2.60;;
58760;SDS011;44529;47.464;19.014;2023-04-25T17:17:42;5.62;;;2.92;;
58760;SDS011;44529;47.464;19.014;2023-04-25T17:20:44;4.18;;;3.05;;
58760;SDS011;44529;47.464;19.014;2023-04-25T17:23:47;4.55;;;3.17;;
58760;SDS011;44529;47.464;19.014;2023-04-25T17:26:49;4.40;;;2.60;;
58760;SDS011;44529;47.464;19.014;2023-04-25T17:29:52;3.10;;;2.90;;
58760;SDS011;44529;47.464;19.014;2023-04-25T17:32:54;4.90;;;2.92;;
58760;SDS011;44529;47.464;19.014;2023-04-25T17:35:56;3.15;;;2.85;;
58760;SDS011;44529;47.464;19.014;2023-04-25T17:38:59;3.90;;;2.92;;
58760;SDS011;44529;47.464;19.014;2023-04-25T17:42:02;5.43;;;3.20;;
58760;SDS011;44529;47.464;19.014;2023-04-25T17:45:04;3.60;;;3.30;;
58760;SDS011;44529;47.464;19.014;2023-04-25T17:48:08;5.53;;;4.00;;
58760;SDS011;44529;47.464;19.014;2023-04-25T17:51:11;4.47;;;3.33;;
58760;SDS011;44529;47.464;19.014;2023-04-25T17:54:13;4.50;;;3.45;;
58760;SDS011;44529;47.464;19.014;2023-04-25T17:57:16;5.70;;;3.60;;
58760;SDS011;44529;47.464;19.014;2023-04-25T18:00:19;4.22;;;3.50;;
58760;SDS011;44529;47.464;19.014;2023-04-25T18:03:21;4.50;;;3.58;;
58760;SDS011;44529;47.464;19.014;2023-04-25T18:06:24;3.78;;;3.35;;
58760;SDS011;44529;47.464;19.014;2023-04-25T18:09:26;5.82;;;3.85;;
58760;SDS011;44529;47.464;19.014;2023-04-25T18:12:28;4.95;;;3.70;;
58760;SDS011;44529;47.464;19.014;2023-04-25T18:15:31;5.30;;;3.90;;